createdAt,value
2022-09-26T00:00:52.663Z,1017.65
2022-09-26T00:01:53.451Z,1017.64
2022-09-26T00:02:54.225Z,1017.62
2022-09-26T00:03:54.814Z,1017.60
2022-09-26T00:04:55.418Z,1017.61
2022-09-26T00:05:56.085Z,1017.59
2022-09-26T00:06:56.649Z,1017.62
2022-09-26T00:07:57.204Z,1017.61
2022-09-26T00:08:57.778Z,1017.65
2022-09-26T00:09:58.431Z,1017.63
2022-09-26T00:10:58.996Z,1017.66
2022-09-26T00:11:59.564Z,1017.65
2022-09-26T00:13:00.136Z,1017.66
2022-09-26T00:14:00.702Z,1017.69
2022-09-26T00:15:01.389Z,1017.67
2022-09-26T00:16:01.973Z,1017.65
2022-09-26T00:17:02.622Z,1017.67
2022-09-26T00:18:03.214Z,1017.63
2022-09-26T00:19:03.775Z,1017.62
2022-09-26T00:20:04.438Z,1017.59
2022-09-26T00:21:05.023Z,1017.60
2022-09-26T00:22:05.590Z,1017.57
2022-09-26T00:23:06.164Z,1017.57
2022-09-26T00:24:06.731Z,1017.56
2022-09-26T00:25:07.417Z,1017.51
2022-09-26T00:26:07.983Z,1017.52
2022-09-26T00:27:08.541Z,1017.45
2022-09-26T00:28:09.106Z,1017.44
2022-09-26T00:29:09.745Z,1017.48
2022-09-26T00:30:10.470Z,1017.48
2022-09-26T00:31:11.115Z,1017.49
2022-09-26T00:32:11.755Z,1017.53
2022-09-26T00:33:12.315Z,1017.47
2022-09-26T00:34:12.883Z,1017.46
2022-09-26T00:35:13.483Z,1017.44
2022-09-26T00:36:14.077Z,1017.43
2022-09-26T00:37:14.640Z,1017.43
2022-09-26T00:38:15.202Z,1017.40
2022-09-26T00:39:15.930Z,1017.39
2022-09-26T00:40:16.738Z,1017.37
2022-09-26T00:41:17.348Z,1017.31
2022-09-26T00:42:17.918Z,1017.31
2022-09-26T00:43:18.492Z,1017.33
2022-09-26T00:44:19.067Z,1017.28
2022-09-26T00:45:19.763Z,1017.31
2022-09-26T00:46:20.405Z,1017.32
2022-09-26T00:47:21.058Z,1017.33
2022-09-26T00:48:21.623Z,1017.34
2022-09-26T00:49:22.189Z,1017.34
2022-09-26T00:50:22.916Z,1017.34
2022-09-26T00:51:23.563Z,1017.37
2022-09-26T00:52:24.131Z,1017.36
2022-09-26T00:53:24.704Z,1017.34
2022-09-26T00:54:25.273Z,1017.38
2022-09-26T00:55:25.864Z,1017.32
2022-09-26T00:56:26.424Z,1017.36
2022-09-26T00:57:27.002Z,1017.35
2022-09-26T00:58:27.571Z,1017.32
2022-09-26T00:59:28.145Z,1017.30
2022-09-26T01:00:29.051Z,1017.30
2022-09-26T01:01:29.795Z,1017.30
2022-09-26T01:02:30.555Z,1017.32
2022-09-26T01:03:31.187Z,1017.32
2022-09-26T01:04:31.757Z,1017.30
2022-09-26T01:05:32.359Z,1017.30
2022-09-26T01:06:32.978Z,1017.33
2022-09-26T01:07:33.547Z,1017.32
2022-09-26T01:08:34.124Z,1017.35
2022-09-26T01:09:34.681Z,1017.32
2022-09-26T01:10:35.354Z,1017.35
2022-09-26T01:11:35.910Z,1017.31
2022-09-26T01:12:36.482Z,1017.33
2022-09-26T01:13:37.066Z,1017.30
2022-09-26T01:14:37.633Z,1017.34
2022-09-26T01:15:38.342Z,1017.33
2022-09-26T01:16:39.030Z,1017.34
2022-09-26T01:17:39.643Z,1017.32
2022-09-26T01:18:40.209Z,1017.37
2022-09-26T01:19:40.774Z,1017.35
2022-09-26T01:20:41.378Z,1017.37
2022-09-26T01:21:41.975Z,1017.35
2022-09-26T01:22:42.536Z,1017.35
2022-09-26T01:23:43.104Z,1017.36
2022-09-26T01:24:43.667Z,1017.37
2022-09-26T01:25:44.286Z,1017.35
2022-09-26T01:26:44.845Z,1017.34
2022-09-26T01:27:45.397Z,1017.34
2022-09-26T01:28:45.958Z,1017.34
2022-09-26T01:29:46.519Z,1017.37
2022-09-26T01:30:47.192Z,1017.33
2022-09-26T01:31:47.792Z,1017.35
2022-09-26T01:32:48.356Z,1017.35
2022-09-26T01:33:48.923Z,1017.36
2022-09-26T01:34:49.495Z,1017.35
2022-09-26T01:35:50.102Z,1017.37
2022-09-26T01:36:50.693Z,1017.37
2022-09-26T01:37:51.255Z,1017.38
2022-09-26T01:38:51.824Z,1017.39
2022-09-26T01:39:52.393Z,1017.39
2022-09-26T01:40:53.081Z,1017.43
2022-09-26T01:41:53.656Z,1017.39
2022-09-26T01:42:54.227Z,1017.41
2022-09-26T01:43:54.791Z,1017.38
2022-09-26T01:44:55.358Z,1017.37
2022-09-26T01:45:56.123Z,1017.31
2022-09-26T01:46:56.730Z,1017.32
2022-09-26T01:47:57.303Z,1017.31
2022-09-26T01:48:57.873Z,1017.32
2022-09-26T01:49:58.454Z,1017.28
2022-09-26T01:50:59.182Z,1017.29
2022-09-26T01:51:59.773Z,1017.29
2022-09-26T01:53:00.353Z,1017.25
2022-09-26T01:54:00.915Z,1017.28
2022-09-26T01:55:01.478Z,1017.30
2022-09-26T01:56:02.076Z,1017.29
2022-09-26T01:57:02.637Z,1017.30
2022-09-26T01:58:03.208Z,1017.34
2022-09-26T01:59:03.777Z,1017.32
2022-09-26T02:00:04.344Z,1017.31
2022-09-26T02:01:05.624Z,1017.30
2022-09-26T02:02:05.824Z,1017.30
2022-09-26T02:03:06.439Z,1017.29
2022-09-26T02:04:07.004Z,1017.26
2022-09-26T02:05:07.575Z,1017.23
2022-09-26T02:06:08.224Z,1017.22
2022-09-26T02:07:08.814Z,1017.18
2022-09-26T02:08:09.384Z,1017.19
2022-09-26T02:09:09.947Z,1017.15
2022-09-26T02:10:10.507Z,1017.15
2022-09-26T02:11:11.170Z,1017.13
2022-09-26T02:12:11.737Z,1017.14
2022-09-26T02:13:12.320Z,1017.13
2022-09-26T02:14:12.899Z,1017.08
2022-09-26T02:15:13.474Z,1017.05
2022-09-26T02:16:14.225Z,1017.02
2022-09-26T02:17:14.843Z,1017.00
2022-09-26T02:18:15.417Z,1016.99
2022-09-26T02:19:16.043Z,1017.00
2022-09-26T02:20:16.639Z,1017.01
2022-09-26T02:21:17.262Z,1017.00
2022-09-26T02:22:17.846Z,1017.02
2022-09-26T02:23:18.407Z,1016.98
2022-09-26T02:24:18.967Z,1016.98
2022-09-26T02:25:19.541Z,1017.01
2022-09-26T02:26:20.139Z,1017.03
2022-09-26T02:27:20.704Z,1017.01
2022-09-26T02:28:21.269Z,1017.02
2022-09-26T02:29:21.831Z,1016.99
2022-09-26T02:30:22.392Z,1016.97
2022-09-26T02:31:23.094Z,1016.96
2022-09-26T02:32:23.710Z,1016.96
2022-09-26T02:33:24.281Z,1016.98
2022-09-26T02:34:24.850Z,1016.97
2022-09-26T02:35:25.407Z,1016.95
2022-09-26T02:36:26.021Z,1016.96
2022-09-26T02:37:26.622Z,1016.92
2022-09-26T02:38:27.188Z,1016.91
2022-09-26T02:39:27.757Z,1016.92
2022-09-26T02:40:28.364Z,1016.89
2022-09-26T02:41:29.129Z,1016.89
2022-09-26T02:42:29.703Z,1016.85
2022-09-26T02:43:30.298Z,1016.89
2022-09-26T02:44:30.865Z,1016.85
2022-09-26T02:45:31.503Z,1016.85
2022-09-26T02:46:32.218Z,1016.86
2022-09-26T02:47:32.781Z,1016.85
2022-09-26T02:48:33.341Z,1016.82
2022-09-26T02:49:33.903Z,1016.83
2022-09-26T02:50:34.464Z,1016.83
2022-09-26T02:51:35.135Z,1016.87
2022-09-26T02:52:35.723Z,1016.92
2022-09-26T02:53:36.296Z,1016.89
2022-09-26T02:54:36.865Z,1016.89
2022-09-26T02:55:37.426Z,1016.86
2022-09-26T02:56:38.035Z,1016.87
2022-09-26T02:57:38.605Z,1016.91
2022-09-26T02:58:39.177Z,1016.88
2022-09-26T02:59:39.741Z,1016.84
2022-09-26T03:00:40.369Z,1016.87
2022-09-26T03:01:41.167Z,1016.86
2022-09-26T03:02:41.786Z,1016.90
2022-09-26T03:03:42.410Z,1016.89
2022-09-26T03:04:43.105Z,1016.90
2022-09-26T03:05:43.744Z,1016.91
2022-09-26T03:06:44.340Z,1016.92
2022-09-26T03:07:44.923Z,1016.95
2022-09-26T03:08:45.483Z,1016.95
2022-09-26T03:09:46.038Z,1016.97
2022-09-26T03:10:46.603Z,1016.97
2022-09-26T03:11:47.198Z,1016.97
2022-09-26T03:12:47.773Z,1016.97
2022-09-26T03:13:48.345Z,1017.00
2022-09-26T03:14:48.907Z,1017.02
2022-09-26T03:15:49.484Z,1017.01
2022-09-26T03:16:50.256Z,1017.02
2022-09-26T03:17:50.865Z,1016.99
2022-09-26T03:18:51.432Z,1017.00
2022-09-26T03:19:51.996Z,1017.00
2022-09-26T03:20:52.597Z,1017.01
2022-09-26T03:22:16.564Z,1017.01
2022-09-26T03:22:53.837Z,1017.03
2022-09-26T03:23:54.404Z,1017.07
2022-09-26T03:24:54.971Z,1017.07
2022-09-26T03:25:55.534Z,1017.05
2022-09-26T03:26:56.134Z,1017.08
2022-09-26T03:27:56.702Z,1017.06
2022-09-26T03:28:57.306Z,1017.06
2022-09-26T03:29:57.872Z,1017.07
2022-09-26T03:30:58.443Z,1017.06
2022-09-26T03:31:59.093Z,1017.08
2022-09-26T03:32:59.742Z,1017.08
2022-09-26T03:34:00.359Z,1017.06
2022-09-26T03:35:00.922Z,1017.04
2022-09-26T03:36:01.502Z,1017.05
2022-09-26T03:37:02.057Z,1017.02
2022-09-26T03:38:02.655Z,1017.03
2022-09-26T03:39:03.257Z,1017.01
2022-09-26T03:40:03.824Z,1017.03
2022-09-26T03:41:04.461Z,1017.03
2022-09-26T03:42:05.137Z,1017.02
2022-09-26T03:43:05.698Z,1017.03
2022-09-26T03:44:06.302Z,1017.04
2022-09-26T03:45:06.887Z,1017.00
2022-09-26T03:46:07.573Z,1017.01
2022-09-26T03:47:08.208Z,1017.02
2022-09-26T03:48:08.777Z,1016.99
2022-09-26T03:49:09.571Z,1016.99
2022-09-26T03:50:10.136Z,1017.01
2022-09-26T03:51:10.712Z,1017.03
2022-09-26T03:52:11.275Z,1016.99
2022-09-26T03:53:11.860Z,1017.03
2022-09-26T03:54:12.522Z,1016.98
2022-09-26T03:55:13.089Z,1016.94
2022-09-26T03:56:13.613Z,1016.95
2022-09-26T03:57:14.126Z,1016.94
2022-09-26T03:58:14.639Z,1016.91
2022-09-26T03:59:15.294Z,1016.90
2022-09-26T04:00:15.921Z,1016.89
2022-09-26T04:01:16.581Z,1016.90
2022-09-26T04:02:17.335Z,1016.92
2022-09-26T04:03:17.921Z,1016.93
2022-09-26T04:04:18.516Z,1016.92
2022-09-26T04:05:19.025Z,1016.92
2022-09-26T04:06:19.539Z,1016.91
2022-09-26T04:07:20.042Z,1016.94
2022-09-26T04:08:20.577Z,1016.94
2022-09-26T04:09:21.434Z,1016.94
2022-09-26T04:10:21.712Z,1016.94
2022-09-26T04:11:22.225Z,1016.94
2022-09-26T04:12:22.731Z,1016.90
2022-09-26T04:13:46.926Z,1016.90
2022-09-26T04:14:24.131Z,1016.87
2022-09-26T04:15:24.661Z,1016.86
2022-09-26T04:16:25.205Z,1016.81
2022-09-26T04:17:25.772Z,1016.81
2022-09-26T04:18:26.286Z,1016.79
2022-09-26T04:19:26.911Z,1016.76
2022-09-26T04:20:27.417Z,1016.76
2022-09-26T04:21:27.928Z,1016.74
2022-09-26T04:22:28.437Z,1016.71
2022-09-26T04:23:29.064Z,1016.75
2022-09-26T04:24:29.612Z,1016.74
2022-09-26T04:25:30.124Z,1016.75
2022-09-26T04:26:30.776Z,1016.74
2022-09-26T04:27:31.425Z,1016.71
2022-09-26T04:28:31.941Z,1016.74
2022-09-26T04:29:32.484Z,1016.73
2022-09-26T04:30:33.022Z,1016.75
2022-09-26T04:31:33.615Z,1016.76
2022-09-26T04:32:34.145Z,1016.71
2022-09-26T04:33:38.024Z,1016.71
2022-09-26T04:34:35.257Z,1016.68
2022-09-26T04:35:36.586Z,1016.68
2022-09-26T04:36:36.609Z,1016.73
2022-09-26T04:37:37.380Z,1016.69
2022-09-26T04:38:37.970Z,1016.73
2022-09-26T04:39:38.714Z,1016.73
2022-09-26T04:40:42.677Z,1016.75
2022-09-26T04:41:39.859Z,1016.73
2022-09-26T04:42:40.375Z,1016.74
2022-09-26T04:43:41.449Z,1016.73
2022-09-26T04:44:50.521Z,1016.66
2022-09-26T04:45:42.291Z,1016.67
2022-09-26T04:46:42.848Z,1016.68
2022-09-26T04:47:44.764Z,1016.65
2022-09-26T04:48:45.916Z,1016.65
2022-09-26T04:49:45.095Z,1016.65
2022-09-26T04:50:45.601Z,1016.66
2022-09-26T04:51:47.780Z,1016.66
2022-09-26T04:52:47.545Z,1016.66
2022-09-26T04:53:48.180Z,1016.65
2022-09-26T04:54:48.789Z,1016.65
2022-09-26T04:55:49.293Z,1016.64
2022-09-26T04:56:49.810Z,1016.63
2022-09-26T04:57:50.548Z,1016.63
2022-09-26T04:58:51.392Z,1016.64
2022-09-26T04:59:51.941Z,1016.65
2022-09-26T05:00:52.540Z,1016.66
2022-09-26T05:01:53.170Z,1016.66
2022-09-26T05:02:53.717Z,1016.68
2022-09-26T05:03:54.255Z,1016.68
2022-09-26T05:04:54.868Z,1016.69
2022-09-26T05:06:00.847Z,1016.70
2022-09-26T05:06:58.516Z,1016.71
2022-09-26T05:07:58.470Z,1016.74
2022-09-26T05:08:58.742Z,1016.76
2022-09-26T05:09:58.784Z,1016.78
2022-09-26T05:10:59.298Z,1016.79
2022-09-26T05:11:59.850Z,1016.79
2022-09-26T05:13:04.451Z,1016.82
2022-09-26T05:14:06.292Z,1016.83
2022-09-26T05:15:06.591Z,1016.82
2022-09-26T05:16:02.427Z,1016.81
2022-09-26T05:17:05.486Z,1016.83
2022-09-26T05:18:04.262Z,1016.82
2022-09-26T05:19:04.807Z,1016.82
2022-09-26T05:20:05.687Z,1016.81
2022-09-26T05:21:23.655Z,1016.78
2022-09-26T05:22:06.761Z,1016.78
2022-09-26T05:23:07.272Z,1016.80
2022-09-26T05:24:07.809Z,1016.77
2022-09-26T05:25:08.376Z,1016.77
2022-09-26T05:26:08.886Z,1016.76
2022-09-26T05:27:09.400Z,1016.78
2022-09-26T05:28:09.922Z,1016.77
2022-09-26T05:29:10.606Z,1016.76
2022-09-26T05:30:29.746Z,1016.78
2022-09-26T05:31:12.239Z,1016.76
2022-09-26T05:32:12.284Z,1016.77
2022-09-26T05:33:12.800Z,1016.74
2022-09-26T05:34:18.715Z,1016.75
2022-09-26T05:35:14.181Z,1016.75
2022-09-26T05:36:14.727Z,1016.73
2022-09-26T05:37:15.242Z,1016.76
2022-09-26T05:38:15.754Z,1016.69
2022-09-26T05:39:16.288Z,1016.71
2022-09-26T05:40:17.059Z,1016.69
2022-09-26T05:41:17.623Z,1016.72
2022-09-26T05:42:18.129Z,1016.75
2022-09-26T05:43:18.646Z,1016.73
2022-09-26T05:44:19.203Z,1016.72
2022-09-26T05:45:19.748Z,1016.74
2022-09-26T05:46:20.292Z,1016.76
2022-09-26T05:47:20.910Z,1016.75
2022-09-26T05:48:21.417Z,1016.78
2022-09-26T05:49:25.761Z,1016.77
2022-09-26T05:50:22.978Z,1016.79
2022-09-26T05:51:23.667Z,1016.78
2022-09-26T05:52:24.186Z,1016.82
2022-09-26T05:53:24.704Z,1016.84
2022-09-26T05:54:25.290Z,1016.86
2022-09-26T05:55:25.889Z,1016.86
2022-09-26T05:56:26.393Z,1016.87
2022-09-26T05:57:26.902Z,1016.88
2022-09-26T05:58:27.419Z,1016.90
2022-09-26T05:59:27.938Z,1016.88
2022-09-26T06:00:34.736Z,1016.90
2022-09-26T06:01:29.499Z,1016.89
2022-09-26T06:02:29.668Z,1016.88
2022-09-26T06:09:17.336Z,1016.83
2022-09-26T06:09:57.811Z,1016.83
2022-09-26T06:10:58.806Z,1016.82
2022-09-26T06:12:05.017Z,1016.82
2022-09-26T06:12:59.808Z,1016.81
2022-09-26T06:14:00.319Z,1016.79
2022-09-26T06:15:00.891Z,1016.79
2022-09-26T06:16:01.545Z,1016.76
2022-09-26T06:17:02.099Z,1016.75
2022-09-26T06:18:02.629Z,1016.74
2022-09-26T06:19:03.149Z,1016.74
2022-09-26T06:20:03.783Z,1016.74
2022-09-26T06:21:04.309Z,1016.75
2022-09-26T06:22:04.821Z,1016.77
2022-09-26T06:23:05.378Z,1016.79
2022-09-26T06:24:05.920Z,1016.80
2022-09-26T06:25:06.587Z,1016.82
2022-09-26T06:26:07.715Z,1016.84
2022-09-26T06:27:07.736Z,1016.87
2022-09-26T06:28:08.247Z,1016.89
2022-09-26T06:29:08.871Z,1016.90
2022-09-26T06:30:09.414Z,1016.92
2022-09-26T06:31:10.051Z,1016.93
2022-09-26T06:32:10.655Z,1016.95
2022-09-26T06:33:11.176Z,1016.97
2022-09-26T06:34:11.737Z,1016.97
2022-09-26T06:35:12.355Z,1016.98
2022-09-26T06:36:12.898Z,1016.99
2022-09-26T06:37:13.666Z,1016.99
2022-09-26T06:38:13.951Z,1017.01
2022-09-26T06:39:14.642Z,1017.01
2022-09-26T06:40:15.395Z,1017.01
2022-09-26T06:41:15.944Z,1017.02
2022-09-26T06:42:16.900Z,1017.04
2022-09-26T06:43:17.409Z,1017.04
2022-09-26T06:44:17.923Z,1017.04
2022-09-26T06:45:18.469Z,1017.03
2022-09-26T06:46:19.126Z,1017.03
2022-09-26T06:47:19.757Z,1017.01
2022-09-26T06:48:24.400Z,1017.00
2022-09-26T06:49:21.247Z,1016.99
2022-09-26T06:50:21.857Z,1016.97
2022-09-26T06:51:22.471Z,1016.95
2022-09-26T06:52:23.047Z,1016.94
2022-09-26T06:53:23.559Z,1016.92
2022-09-26T06:54:24.104Z,1016.92
2022-09-26T06:55:24.733Z,1016.92
2022-09-26T06:56:25.771Z,1016.93
2022-09-26T06:57:25.785Z,1016.94
2022-09-26T06:58:26.297Z,1016.94
2022-09-26T06:59:26.811Z,1016.95
2022-09-26T07:00:32.341Z,1016.95
2022-09-26T07:01:34.521Z,1016.95
2022-09-26T07:02:30.784Z,1016.95
2022-09-26T07:03:29.616Z,1016.95
2022-09-26T07:04:30.163Z,1016.95
2022-09-26T07:05:30.735Z,1016.96
2022-09-26T07:06:31.286Z,1016.96
2022-09-26T07:07:31.793Z,1016.96
2022-09-26T07:09:00.417Z,1016.96
2022-09-26T07:09:33.222Z,1016.95
2022-09-26T07:10:33.990Z,1016.92
2022-09-26T07:11:56.304Z,1016.90
2022-09-26T07:12:35.490Z,1016.87
2022-09-26T07:13:35.993Z,1016.86
2022-09-26T07:14:36.899Z,1016.85
2022-09-26T07:15:37.440Z,1016.85
2022-09-26T07:16:38.144Z,1016.86
2022-09-26T07:17:38.684Z,1016.86
2022-09-26T07:18:39.192Z,1016.88
2022-09-26T07:19:39.709Z,1016.89
2022-09-26T07:20:40.271Z,1016.91
2022-09-26T07:21:40.779Z,1016.93
2022-09-26T07:22:41.291Z,1016.94
2022-09-26T07:23:41.796Z,1016.95
2022-09-26T07:24:42.302Z,1016.96
2022-09-26T07:25:45.224Z,1016.97
2022-09-26T07:26:43.755Z,1016.97
2022-09-26T07:27:44.279Z,1016.98
2022-09-26T07:28:45.185Z,1016.99
2022-09-26T07:29:45.577Z,1017.00
2022-09-26T07:30:46.188Z,1017.00
2022-09-26T07:31:46.930Z,1017.01
2022-09-26T07:32:47.533Z,1017.00
2022-09-26T07:33:48.044Z,1016.99
2022-09-26T07:34:48.555Z,1016.98
2022-09-26T07:35:49.112Z,1016.99
2022-09-26T07:36:51.631Z,1017.00
2022-09-26T07:37:50.148Z,1017.00
2022-09-26T07:38:50.657Z,1017.02
2022-09-26T07:39:54.117Z,1017.03
2022-09-26T07:40:52.160Z,1017.05
2022-09-26T07:41:52.710Z,1017.07
2022-09-26T07:43:09.576Z,1017.09
2022-09-26T07:44:53.344Z,1017.13
2022-09-26T07:45:24.259Z,1017.15
2022-09-26T07:45:55.844Z,1017.17
2022-09-26T07:46:56.413Z,1017.19
2022-09-26T07:47:56.951Z,1017.20
2022-09-26T07:48:57.467Z,1017.21
2022-09-26T07:49:58.078Z,1017.22
2022-09-26T07:50:58.628Z,1017.22
2022-09-26T07:51:59.264Z,1017.23
2022-09-26T07:53:00.593Z,1017.24
2022-09-26T07:54:00.727Z,1017.22
2022-09-26T07:55:01.325Z,1017.22
2022-09-26T07:56:01.921Z,1017.22
2022-09-26T07:57:02.493Z,1017.19
2022-09-26T07:58:03.050Z,1017.18
2022-09-26T07:59:03.679Z,1017.16
2022-09-26T08:00:04.191Z,1017.15
2022-09-26T08:01:04.778Z,1017.14
2022-09-26T08:02:05.450Z,1017.13
2022-09-26T08:03:06.089Z,1017.12
2022-09-26T08:04:07.107Z,1017.12
2022-09-26T08:05:07.271Z,1017.13
2022-09-26T08:06:07.824Z,1017.14
2022-09-26T08:07:08.342Z,1017.14
2022-09-26T08:08:08.866Z,1017.15
2022-09-26T08:09:09.516Z,1017.15
2022-09-26T08:10:10.051Z,1017.14
2022-09-26T08:11:10.668Z,1017.13
2022-09-26T08:12:11.169Z,1017.11
2022-09-26T08:13:11.747Z,1017.09
2022-09-26T08:14:12.985Z,1017.07
2022-09-26T08:15:13.031Z,1017.05
2022-09-26T08:16:13.647Z,1017.02
2022-09-26T08:17:14.595Z,1016.99
2022-09-26T08:18:15.221Z,1016.95
2022-09-26T08:19:15.938Z,1016.92
2022-09-26T08:20:16.543Z,1016.88
2022-09-26T08:21:17.194Z,1016.87
2022-09-26T08:22:17.855Z,1016.86
2022-09-26T08:23:18.363Z,1016.85
2022-09-26T08:24:19.164Z,1016.84
2022-09-26T08:25:19.672Z,1016.84
2022-09-26T08:26:21.012Z,1016.84
2022-09-26T08:27:21.550Z,1016.84
2022-09-26T08:28:21.648Z,1016.82
2022-09-26T08:29:22.181Z,1016.81
2022-09-26T08:30:23.023Z,1016.80
2022-09-26T08:31:23.621Z,1016.79
2022-09-26T08:32:24.207Z,1016.77
2022-09-26T08:33:24.772Z,1016.76
2022-09-26T08:34:26.011Z,1016.75
2022-09-26T08:35:26.537Z,1016.74
2022-09-26T08:36:27.079Z,1016.74
2022-09-26T08:37:27.656Z,1016.74
2022-09-26T08:38:28.280Z,1016.74
2022-09-26T08:39:33.270Z,1016.74
2022-09-26T08:40:30.158Z,1016.75
2022-09-26T08:41:30.886Z,1016.77
2022-09-26T08:42:40.097Z,1016.78
2022-09-26T08:43:39.530Z,1016.79
2022-09-26T08:44:34.068Z,1016.82
2022-09-26T08:45:46.703Z,1016.85
2022-09-26T08:46:34.809Z,1016.87
2022-09-26T08:47:53.362Z,1016.89
2022-09-26T08:48:47.842Z,1016.90
2022-09-26T08:49:36.505Z,1016.91
2022-09-26T08:50:40.341Z,1016.90
2022-09-26T08:51:37.603Z,1016.89
2022-09-26T08:52:38.481Z,1016.88
2022-09-26T08:53:38.993Z,1016.88
2022-09-26T08:54:39.512Z,1016.88
2022-09-26T08:55:40.007Z,1016.89
2022-09-26T08:56:40.589Z,1016.89
2022-09-26T08:57:41.101Z,1016.90
2022-09-26T08:58:41.610Z,1016.90
2022-09-26T08:59:42.129Z,1016.91
2022-09-26T09:00:42.639Z,1016.91
2022-09-26T09:01:43.357Z,1016.92
2022-09-26T09:02:44.810Z,1016.92
2022-09-26T09:03:44.918Z,1016.91
2022-09-26T09:04:49.116Z,1016.91
2022-09-26T09:05:45.999Z,1016.89
2022-09-26T09:06:49.716Z,1016.88
2022-09-26T09:07:47.979Z,1016.88
2022-09-26T09:08:48.041Z,1016.86
2022-09-26T09:09:48.565Z,1016.85
2022-09-26T09:10:49.435Z,1016.84
2022-09-26T09:11:51.235Z,1016.84
2022-09-26T09:12:50.980Z,1016.83
2022-09-26T09:13:51.516Z,1016.83
2022-09-26T09:15:13.855Z,1016.83
2022-09-26T09:15:52.914Z,1016.84
2022-09-26T09:16:54.032Z,1016.84
2022-09-26T09:17:54.034Z,1016.84
2022-09-26T09:18:54.566Z,1016.84
2022-09-26T09:19:55.075Z,1016.84
2022-09-26T09:20:55.591Z,1016.82
2022-09-26T09:21:56.142Z,1016.81
2022-09-26T09:22:56.667Z,1016.79
2022-09-26T09:23:57.188Z,1016.77
2022-09-26T09:24:57.701Z,1016.75
2022-09-26T09:27:52.244Z,1016.75
2022-09-26T09:28:05.499Z,1016.75
2022-09-26T09:29:10.245Z,1016.75
2022-09-26T09:30:01.517Z,1016.76
2022-09-26T09:31:02.190Z,1016.76
2022-09-26T09:32:05.169Z,1016.75
2022-09-26T09:33:05.083Z,1016.75
2022-09-26T09:34:04.655Z,1016.76
2022-09-26T09:35:05.597Z,1016.76
2022-09-26T09:36:07.220Z,1016.77
2022-09-26T09:37:06.852Z,1016.76
2022-09-26T09:38:08.506Z,1016.76
2022-09-26T09:39:08.339Z,1016.74
2022-09-26T09:40:08.965Z,1016.73
2022-09-26T09:41:09.476Z,1016.72
2022-09-26T09:42:12.211Z,1016.71
2022-09-26T09:43:10.708Z,1016.69
2022-09-26T09:44:11.220Z,1016.68
2022-09-26T09:45:11.726Z,1016.67
2022-09-26T09:46:12.298Z,1016.66
2022-09-26T09:47:12.861Z,1016.66
2022-09-26T09:48:13.379Z,1016.66
2022-09-26T09:49:13.894Z,1016.66
2022-09-26T09:50:14.402Z,1016.66
2022-09-26T09:51:14.916Z,1016.67
2022-09-26T09:52:15.468Z,1016.67
2022-09-26T09:53:15.974Z,1016.68
2022-09-26T09:54:16.490Z,1016.70
2022-09-26T09:55:20.059Z,1016.71
2022-09-26T09:56:17.674Z,1016.73
2022-09-26T09:57:18.249Z,1016.73
2022-09-26T09:58:18.758Z,1016.73
2022-09-26T09:59:19.265Z,1016.71
2022-09-26T10:00:19.778Z,1016.70
2022-09-26T10:01:38.773Z,1016.70
2022-09-26T10:04:09.752Z,1016.69
2022-09-26T10:05:11.264Z,1016.68
2022-09-26T10:06:43.960Z,1016.67
2022-09-26T10:07:12.632Z,1016.67
2022-09-26T10:08:13.279Z,1016.65
2022-09-26T10:09:38.844Z,1016.65
2022-09-26T10:10:14.815Z,1016.65
2022-09-26T10:11:15.400Z,1016.64
2022-09-26T10:12:15.908Z,1016.65
2022-09-26T10:13:20.650Z,1016.65
2022-09-26T10:14:17.162Z,1016.66
2022-09-26T10:15:20.661Z,1016.67
2022-09-26T10:16:18.306Z,1016.69
2022-09-26T10:17:18.822Z,1016.69
2022-09-26T10:18:24.793Z,1016.69
2022-09-26T10:19:20.154Z,1016.71
2022-09-26T10:20:20.667Z,1016.72
2022-09-26T10:21:21.173Z,1016.73
2022-09-26T10:22:21.688Z,1016.74
2022-09-26T10:23:22.360Z,1016.76
2022-09-26T10:24:22.874Z,1016.77
2022-09-26T10:25:23.394Z,1016.80
2022-09-26T10:26:26.558Z,1016.81
2022-09-26T10:27:24.758Z,1016.82
2022-09-26T10:28:25.330Z,1016.81
2022-09-26T10:29:25.846Z,1016.80
2022-09-26T10:30:26.371Z,1016.79
2022-09-26T10:31:26.979Z,1016.77
2022-09-26T10:32:27.545Z,1016.75
2022-09-26T10:33:28.093Z,1016.73
2022-09-26T10:34:31.460Z,1016.71
2022-09-26T10:35:29.467Z,1016.69
2022-09-26T10:36:29.988Z,1016.67
2022-09-26T10:37:30.503Z,1016.63
2022-09-26T10:38:31.067Z,1016.61
2022-09-26T10:39:31.587Z,1016.58
2022-09-26T10:40:32.145Z,1016.55
2022-09-26T10:41:32.682Z,1016.53
2022-09-26T10:42:33.200Z,1016.50
2022-09-26T10:43:33.778Z,1016.49
2022-09-26T10:44:34.298Z,1016.48
2022-09-26T10:45:34.811Z,1016.46
2022-09-26T10:46:35.440Z,1016.46
2022-09-26T10:47:35.985Z,1016.46
2022-09-26T10:48:36.535Z,1016.46
2022-09-26T10:49:37.051Z,1016.45
2022-09-26T10:50:37.568Z,1016.45
2022-09-26T10:51:38.089Z,1016.43
2022-09-26T10:52:38.604Z,1016.43
2022-09-26T10:53:39.222Z,1016.42
2022-09-26T10:54:39.729Z,1016.41
2022-09-26T10:55:40.249Z,1016.42
2022-09-26T10:56:40.771Z,1016.42
2022-09-26T10:57:41.285Z,1016.43
2022-09-26T10:58:41.865Z,1016.43
2022-09-26T10:59:42.383Z,1016.43
2022-09-26T11:00:42.902Z,1016.42
2022-09-26T11:01:43.549Z,1016.40
2022-09-26T11:02:44.129Z,1016.40
2022-09-26T11:03:44.900Z,1016.39
2022-09-26T11:04:45.440Z,1016.40
2022-09-26T11:05:45.958Z,1016.40
2022-09-26T11:06:46.477Z,1016.40
2022-09-26T11:07:46.994Z,1016.39
2022-09-26T11:08:47.719Z,1016.37
2022-09-26T11:09:48.287Z,1016.35
2022-09-26T11:10:48.805Z,1016.32
2022-09-26T11:11:49.330Z,1016.29
2022-09-26T11:12:49.850Z,1016.25
2022-09-26T11:13:50.486Z,1016.23
2022-09-26T11:14:51.005Z,1016.20
2022-09-26T11:15:51.607Z,1016.18
2022-09-26T11:16:52.183Z,1016.16
2022-09-26T11:17:52.702Z,1016.16
2022-09-26T11:18:53.257Z,1016.14
2022-09-26T11:19:55.060Z,1016.13
2022-09-26T11:20:54.756Z,1016.11
2022-09-26T11:21:55.278Z,1016.10
2022-09-26T11:22:55.792Z,1016.09
2022-09-26T11:23:56.353Z,1016.09
2022-09-26T11:24:56.883Z,1016.08
2022-09-26T11:25:58.304Z,1016.07
2022-09-26T11:26:58.392Z,1016.06
2022-09-26T11:27:58.912Z,1016.04
2022-09-26T11:28:59.615Z,1016.01
2022-09-26T11:30:00.159Z,1016.00
2022-09-26T11:31:00.776Z,1015.99
2022-09-26T11:32:01.361Z,1015.98
2022-09-26T11:33:01.893Z,1015.98
2022-09-26T11:34:02.457Z,1015.96
2022-09-26T11:35:03.137Z,1015.95
2022-09-26T11:36:03.831Z,1015.93
2022-09-26T11:37:04.350Z,1015.91
2022-09-26T11:38:04.867Z,1015.90
2022-09-26T11:39:05.438Z,1015.88
2022-09-26T11:40:09.522Z,1015.86
2022-09-26T11:41:06.517Z,1015.84
2022-09-26T11:42:07.033Z,1015.84
2022-09-26T11:43:07.576Z,1015.84
2022-09-26T11:44:08.169Z,1015.83
2022-09-26T11:45:08.686Z,1015.84
2022-09-26T11:46:09.258Z,1015.82
2022-09-26T11:47:09.819Z,1015.81
2022-09-26T11:48:13.285Z,1015.80
2022-09-26T11:49:11.342Z,1015.81
2022-09-26T11:50:11.862Z,1015.79
2022-09-26T11:51:12.406Z,1015.77
2022-09-26T11:52:12.937Z,1015.76
2022-09-26T11:53:13.448Z,1015.74
2022-09-26T11:54:14.224Z,1015.74
2022-09-26T11:55:14.901Z,1015.73
2022-09-26T11:56:15.415Z,1015.72
2022-09-26T11:57:16.468Z,1015.69
2022-09-26T11:58:16.953Z,1015.70
2022-09-26T11:59:17.723Z,1015.70
2022-09-26T12:00:18.249Z,1015.70
2022-09-26T12:01:18.774Z,1015.70
2022-09-26T12:02:19.427Z,1015.70
2022-09-26T12:03:20.307Z,1015.70
2022-09-26T12:04:21.188Z,1015.71
2022-09-26T12:05:26.655Z,1015.72
2022-09-26T12:06:22.591Z,1015.73
2022-09-26T12:07:23.113Z,1015.74
2022-09-26T12:08:23.634Z,1015.73
2022-09-26T12:09:24.660Z,1015.73
2022-09-26T12:10:24.681Z,1015.72
2022-09-26T12:11:25.200Z,1015.70
2022-09-26T12:12:25.731Z,1015.67
2022-09-26T12:13:26.248Z,1015.65
2022-09-26T12:14:26.875Z,1015.64
2022-09-26T12:15:27.388Z,1015.63
2022-09-26T12:16:27.952Z,1015.63
2022-09-26T12:17:28.504Z,1015.62
2022-09-26T12:18:29.017Z,1015.59
2022-09-26T12:19:29.904Z,1015.59
2022-09-26T12:20:30.492Z,1015.56
2022-09-26T12:21:31.392Z,1015.54